Time;durP1;ratioP1;P1;durP2;ratioP2;P2;SDS_P1;SDS_P2;PMS_P1;PMS_P2;Temp;Humidity;BMP_temperature;BMP_pressure;BME280_temperature;BME280_humidity;BME280_pressure;Samples;Min_cycle;Max_cycle;Signal;HPM_P1;HPM_P2
2024/04/13 00:00:38;;;;;;;12.27;6.25;;;;;;;15.48;100.00;102738.59;5633594;26;20040;-74
2024/04/13 00:03:09;;;;;;;13.65;6.70;;;;;;;15.49;100.00;102737.56;5635727;26;20421;-73
2024/04/13 00:05:39;;;;;;;14.85;7.15;;;;;;;15.50;100.00;102741.97;5627559;26;20003;-74
2024/04/13 00:08:10;;;;;;;12.88;6.40;;;;;;;15.50;100.00;102733.00;5635784;26;20021;-73
2024/04/13 00:10:42;;;;;;;17.17;6.45;;;;;;;15.50;100.00;102727.59;5631449;26;20437;-73
2024/04/13 00:13:14;;;;;;;16.38;7.13;;;;;;;15.43;100.00;102731.94;5635935;26;19994;-73
2024/04/13 00:15:55;;;;;;;14.07;6.63;;;;;;;15.35;100.00;102735.38;5627679;26;20010;-73
2024/04/13 00:18:25;;;;;;;11.98;5.97;;;;;;;15.28;100.00;102728.91;5631365;26;20030;-73
2024/04/13 00:20:56;;;;;;;14.00;6.55;;;;;;;15.28;100.00;102731.59;5632629;26;19999;-73
2024/04/13 00:23:26;;;;;;;10.52;6.28;;;;;;;15.25;100.00;102735.44;5635484;26;20071;-73
2024/04/13 00:25:57;;;;;;;16.08;6.63;;;;;;;15.18;100.00;102738.91;5635401;26;20005;-73
2024/04/13 00:28:28;;;;;;;14.63;6.63;;;;;;;15.10;100.00;102736.94;5636066;26;19999;-73
2024/04/13 00:30:59;;;;;;;14.75;6.68;;;;;;;15.07;100.00;102734.56;5633025;26;20452;-74
2024/04/13 00:33:29;;;;;;;12.95;6.60;;;;;;;15.01;100.00;102727.06;5636156;26;19999;-73
2024/04/13 00:36:00;;;;;;;12.82;6.88;;;;;;;14.97;100.00;102729.19;5635701;26;20013;-73
2024/04/13 00:38:30;;;;;;;10.25;6.43;;;;;;;14.89;100.00;102718.28;5635580;26;20006;-74
2024/04/13 00:41:01;;;;;;;11.02;7.55;;;;;;;14.84;100.00;102725.13;5632662;26;20018;-74
2024/04/13 00:43:32;;;;;;;15.52;7.43;;;;;;;14.77;100.00;102731.13;5635220;26;20011;-74
2024/04/13 00:46:07;;;;;;;21.58;7.65;;;;;;;14.70;100.00;102730.00;5632909;26;20093;-73
2024/04/13 00:48:37;;;;;;;14.68;7.25;;;;;;;14.71;100.00;102731.72;5633204;26;20039;-74
2024/04/13 00:51:12;;;;;;;13.45;7.45;;;;;;;14.72;100.00;102732.59;5631641;26;20408;-73
2024/04/13 00:53:43;;;;;;;18.00;7.57;;;;;;;14.66;100.00;102723.22;5634556;26;20010;-73
2024/04/13 00:56:13;;;;;;;12.38;6.97;;;;;;;14.59;100.00;102721.25;5634109;26;20010;-73
2024/04/13 00:58:44;;;;;;;14.98;7.28;;;;;;;14.49;100.00;102726.66;5631136;26;20003;-74
2024/04/13 01:01:16;;;;;;;9.07;5.38;;;;;;;14.38;100.00;102721.41;5634722;26;20810;-74
2024/04/13 01:03:48;;;;;;;10.02;5.30;;;;;;;14.30;100.00;102715.88;5630947;26;20010;-73
2024/04/13 01:06:18;;;;;;;13.80;6.85;;;;;;;14.23;100.00;102726.41;5635177;26;20421;-73
2024/04/13 01:08:50;;;;;;;10.65;5.90;;;;;;;14.19;100.00;102716.91;5633446;26;20013;-73
2024/04/13 01:11:21;;;;;;;17.02;7.10;;;;;;;14.17;100.00;102711.66;5630426;26;20013;-73
2024/04/13 01:13:54;;;;;;;14.60;7.75;;;;;;;14.14;100.00;102706.53;5635314;26;20003;-73
2024/04/13 01:16:27;;;;;;;13.98;6.45;;;;;;;14.14;100.00;102709.22;5629236;26;20010;-73
2024/04/13 01:18:58;;;;;;;13.82;5.35;;;;;;;14.12;100.00;102697.75;5632811;26;20009;-73
2024/04/13 01:21:29;;;;;;;14.35;6.80;;;;;;;14.09;100.00;102700.72;5634675;26;20017;-73
2024/04/13 01:24:04;;;;;;;18.70;7.70;;;;;;;14.07;100.00;102696.47;5634712;26;20003;-74
2024/04/13 01:26:41;;;;;;;15.10;7.53;;;;;;;14.07;100.00;102701.88;5634115;26;20021;-74
2024/04/13 01:29:12;;;;;;;12.57;7.32;;;;;;;14.02;100.00;102686.09;5632398;26;20035;-74
2024/04/13 01:31:42;;;;;;;11.48;7.00;;;;;;;14.01;100.00;102689.81;5633860;26;19995;-74
2024/04/13 01:34:13;;;;;;;14.80;8.10;;;;;;;13.99;100.00;102689.94;5634198;26;20026;-73
2024/04/13 01:36:43;;;;;;;16.38;8.45;;;;;;;14.03;100.00;102692.34;5634513;26;20013;-73
2024/04/13 01:39:14;;;;;;;15.05;7.57;;;;;;;14.04;100.00;102694.06;5632552;26;20017;-72
2024/04/13 01:41:47;;;;;;;17.63;8.43;;;;;;;14.06;100.00;102697.47;5633597;26;19999;-73
2024/04/13 01:44:17;;;;;;;13.35;7.00;;;;;;;14.05;100.00;102702.00;5634067;26;20437;-73
2024/04/13 01:46:48;;;;;;;16.48;7.95;;;;;;;14.12;100.00;102703.13;5634982;26;20075;-72
2024/04/13 01:49:19;;;;;;;15.00;7.30;;;;;;;14.22;100.00;102697.72;5632121;26;20050;-72
2024/04/13 01:51:50;;;;;;;15.75;7.07;;;;;;;14.25;100.00;102700.97;5632601;26;20018;-72
2024/04/13 01:54:20;;;;;;;10.55;6.88;;;;;;;14.21;100.00;102694.19;5633672;26;20011;-72
2024/04/13 01:56:51;;;;;;;16.27;7.75;;;;;;;14.14;100.00;102701.13;5629384;26;20007;-72
2024/04/13 01:59:21;;;;;;;16.67;7.53;;;;;;;14.05;100.00;102696.59;5632981;26;20224;-73
2024/04/13 02:01:54;;;;;;;14.77;7.38;;;;;;;14.02;100.00;102688.81;5635545;26;20005;-72
2024/04/13 02:04:25;;;;;;;15.73;7.78;;;;;;;13.97;100.00;102683.84;5628273;26;20010;-72
2024/04/13 02:06:57;;;;;;;13.15;8.15;;;;;;;13.92;100.00;102683.41;5634396;26;20071;-73
2024/04/13 02:09:31;;;;;;;17.75;7.40;;;;;;;13.85;100.00;102687.66;5630662;26;19999;-72
2024/04/13 02:12:02;;;;;;;16.50;6.45;;;;;;;13.80;100.00;102673.75;5629987;26;19999;-72
2024/04/13 02:14:33;;;;;;;14.30;6.68;;;;;;;13.72;100.00;102669.09;5633968;26;20377;-72
2024/04/13 02:17:09;;;;;;;12.27;7.07;;;;;;;13.63;100.00;102671.78;5631593;26;20317;-72
2024/04/13 02:19:46;;;;;;;15.55;8.68;;;;;;;13.61;100.00;102669.25;5631882;26;19991;-72
2024/04/13 02:22:18;;;;;;;16.33;9.02;;;;;;;13.61;100.00;102669.25;5634207;26;19996;-72
2024/04/13 02:24:49;;;;;;;17.08;10.20;;;;;;;13.65;100.00;102672.50;5633142;26;20360;-72
2024/04/13 02:27:19;;;;;;;20.27;10.70;;;;;;;13.68;100.00;102680.31;5634415;26;19994;-72
2024/04/13 02:29:50;;;;;;;26.55;11.32;;;;;;;13.77;100.00;102675.91;5632079;26;20013;-73
2024/04/13 02:32:21;;;;;;;25.98;12.15;;;;;;;13.81;100.00;102667.41;5633401;26;19994;-73
2024/04/13 02:34:51;;;;;;;23.65;11.38;;;;;;;13.92;100.00;102671.78;5634103;26;20438;-73
2024/04/13 02:37:22;;;;;;;16.75;8.63;;;;;;;13.97;100.00;102670.34;5633308;26;20425;-73
2024/04/13 02:39:53;;;;;;;17.20;8.85;;;;;;;14.01;100.00;102665.53;5624905;26;20075;-73
2024/04/13 02:42:23;;;;;;;16.98;9.32;;;;;;;13.98;100.00;102663.94;5632850;26;20035;-73
2024/04/13 02:44:54;;;;;;;19.17;9.18;;;;;;;13.94;100.00;102658.97;5633751;26;20006;-72
2024/04/13 02:47:25;;;;;;;18.73;9.68;;;;;;;13.87;100.00;102666.81;5627070;26;20010;-73
2024/04/13 02:49:56;;;;;;;18.13;9.57;;;;;;;13.82;100.00;102652.06;5632363;26;19998;-73
2024/04/13 02:52:28;;;;;;;23.67;9.48;;;;;;;13.78;100.00;102651.47;5633598;26;19991;-73
2024/04/13 02:54:59;;;;;;;18.27;9.52;;;;;;;13.76;100.00;102655.34;5632887;26;20068;-73
2024/04/13 02:57:30;;;;;;;14.60;9.18;;;;;;;13.75;100.00;102657.16;5632525;26;20039;-73
2024/04/13 03:00:01;;;;;;;19.75;9.32;;;;;;;13.70;100.00;102654.03;5631549;26;19999;-73
2024/04/13 03:02:32;;;;;;;23.65;10.43;;;;;;;13.67;100.00;102652.50;5633400;26;19995;-72
2024/04/13 03:05:03;;;;;;;15.05;8.90;;;;;;;13.62;100.00;102651.22;5632454;26;20010;-72
2024/04/13 03:07:34;;;;;;;25.02;9.63;;;;;;;13.58;100.00;102653.34;5633398;26;20336;-72
2024/04/13 03:10:06;;;;;;;26.17;11.57;;;;;;;13.58;100.00;102657.88;5631548;26;20010;-72
2024/04/13 03:12:36;;;;;;;22.45;11.52;;;;;;;13.62;100.00;102654.75;5629727;26;20493;-72
2024/04/13 03:15:07;;;;;;;23.83;12.05;;;;;;;13.64;100.00;102650.06;5633524;26;20003;-72
2024/04/13 03:17:38;;;;;;;20.67;11.23;;;;;;;13.63;100.00;102645.66;5633262;26;20007;-72
2024/04/13 03:20:09;;;;;;;22.73;12.45;;;;;;;13.65;100.00;102648.22;5633121;26;20045;-72
2024/04/13 03:22:40;;;;;;;26.90;11.75;;;;;;;13.64;100.00;102638.44;5637064;26;20009;-73
2024/04/13 03:25:10;;;;;;;21.33;10.85;;;;;;;13.66;100.00;102642.69;5634342;26;20010;-73
2024/04/13 03:27:41;;;;;;;25.58;11.23;;;;;;;13.65;100.00;102635.56;5636315;26;19991;-73
2024/04/13 03:30:11;;;;;;;19.88;9.77;;;;;;;13.65;100.00;102635.56;5635097;26;20015;-72
2024/04/13 03:32:42;;;;;;;20.33;10.50;;;;;;;13.61;100.00;102630.66;5636659;26;19999;-73
2024/04/13 03:35:13;;;;;;;20.83;10.30;;;;;;;13.55;100.00;102639.28;5636904;26;19995;-73
2024/04/13 03:37:43;;;;;;;13.80;8.60;;;;;;;13.48;100.00;102634.47;5637156;26;20171;-72
2024/04/13 03:40:14;;;;;;;16.33;9.15;;;;;;;13.42;100.00;102635.03;5635744;26;20013;-72
2024/04/13 03:42:45;;;;;;;18.23;9.80;;;;;;;13.40;100.00;102628.06;5636449;26;20015;-73
2024/04/13 03:45:16;;;;;;;15.73;9.25;;;;;;;13.34;100.00;102636.72;5635188;26;20009;-73
2024/04/13 03:47:47;;;;;;;17.35;9.48;;;;;;;13.30;100.00;102638.00;5636348;26;19999;-73
2024/04/13 03:50:18;;;;;;;19.92;9.18;;;;;;;13.31;100.00;102635.19;5634562;26;20084;-72
2024/04/13 03:52:48;;;;;;;16.65;9.32;;;;;;;13.37;100.00;102637.31;5635658;26;20013;-72
2024/04/13 03:55:19;;;;;;;18.88;9.75;;;;;;;13.37;100.00;102636.44;5636719;26;20043;-72
2024/04/13 03:57:49;;;;;;;19.23;9.90;;;;;;;13.35;100.00;102644.66;5636323;26;20387;-73
2024/04/13 04:00:20;;;;;;;15.23;8.52;;;;;;;13.37;100.00;102642.69;5635024;26;19999;-73
2024/04/13 04:02:51;;;;;;;16.27;9.35;;;;;;;13.37;100.00;102636.44;5636254;26;20002;-72
2024/04/13 04:05:22;;;;;;;16.25;10.05;;;;;;;13.38;100.00;102638.16;5634495;26;20002;-72
2024/04/13 04:07:52;;;;;;;17.50;9.65;;;;;;;13.38;100.00;102641.69;5635890;26;19999;-72
2024/04/13 04:10:22;;;;;;;15.32;8.40;;;;;;;13.37;100.00;102641.84;5634497;26;20013;-72
2024/04/13 04:12:53;;;;;;;21.17;9.30;;;;;;;13.34;100.00;102645.66;5635663;26;20002;-72
2024/04/13 04:15:24;;;;;;;13.82;8.30;;;;;;;13.31;100.00;102642.41;5636843;26;19995;-72
2024/04/13 04:17:54;;;;;;;16.08;9.02;;;;;;;13.31;100.00;102642.41;5635807;26;20010;-72
2024/04/13 04:20:25;;;;;;;17.33;9.52;;;;;;;13.27;100.00;102638.28;5634798;26;20332;-72
2024/04/13 04:22:56;;;;;;;20.33;9.75;;;;;;;13.22;100.00;102638.72;5632987;26;19999;-72
2024/04/13 04:25:26;;;;;;;17.52;9.45;;;;;;;13.20;100.00;102635.25;5636583;26;20007;-72
2024/04/13 04:27:57;;;;;;;18.67;9.77;;;;;;;13.18;100.00;102640.78;5636655;26;20014;-72
2024/04/13 04:30:27;;;;;;;14.02;8.95;;;;;;;13.16;100.00;102645.47;5633686;26;19999;-73
2024/04/13 04:32:58;;;;;;;17.63;9.30;;;;;;;13.13;100.00;102642.19;5634615;26;20009;-73
2024/04/13 04:35:28;;;;;;;23.40;10.13;;;;;;;13.10;100.00;102643.34;5636630;26;20007;-73
2024/04/13 04:37:59;;;;;;;22.02;10.35;;;;;;;13.06;100.00;102646.47;5635751;26;20013;-73
2024/04/13 04:40:29;;;;;;;16.83;10.20;;;;;;;12.97;100.00;102634.66;5632260;26;19999;-72
2024/04/13 04:42:59;;;;;;;13.43;7.35;;;;;;;12.90;100.00;102636.19;5635247;26;20421;-73
2024/04/13 04:45:31;;;;;;;18.25;9.40;;;;;;;12.81;100.00;102637.03;5636144;26;19995;-72
2024/04/13 04:48:02;;;;;;;18.17;9.38;;;;;;;12.77;100.00;102641.00;5631436;26;20003;-73
2024/04/13 04:50:32;;;;;;;23.73;9.68;;;;;;;12.74;100.00;102633.16;5634134;26;20006;-72
2024/04/13 04:53:03;;;;;;;20.27;10.18;;;;;;;12.74;100.00;102633.16;5634776;26;20006;-72
2024/04/13 04:55:34;;;;;;;23.60;10.40;;;;;;;12.70;100.00;102630.78;5635148;26;20429;-72
2024/04/13 04:58:06;;;;;;;18.13;9.82;;;;;;;12.70;100.00;102621.81;5635988;26;20635;-72
2024/04/13 05:00:36;;;;;;;30.58;10.27;;;;;;;12.64;100.00;102623.22;5633848;26;20007;-73
2024/04/13 05:03:07;;;;;;;17.58;9.60;;;;;;;12.59;100.00;102628.16;5635410;26;20068;-72
2024/04/13 05:05:37;;;;;;;19.63;9.38;;;;;;;12.59;100.00;102620.09;5635899;26;20001;-73
2024/04/13 05:08:08;;;;;;;18.45;11.10;;;;;;;12.61;100.00;102628.91;5635390;26;20009;-72
2024/04/13 05:10:38;;;;;;;19.85;11.48;;;;;;;12.67;100.00;102622.97;5634122;26;20017;-73
2024/04/13 05:13:09;;;;;;;27.10;12.32;;;;;;;12.76;100.00;102628.53;5635264;26;19999;-72
2024/04/13 05:15:40;;;;;;;17.52;11.35;;;;;;;12.78;100.00;102623.84;5635410;26;20452;-73
2024/04/13 05:18:10;;;;;;;19.40;10.77;;;;;;;12.85;100.00;102623.16;5635845;26;20014;-72
2024/04/13 05:20:41;;;;;;;21.58;11.30;;;;;;;12.91;100.00;102632.53;5633767;26;20018;-72
2024/04/13 05:23:11;;;;;;;21.88;11.75;;;;;;;12.94;100.00;102635.78;5622129;26;19999;-72
2024/04/13 05:25:42;;;;;;;21.38;11.63;;;;;;;12.99;100.00;102627.28;5631629;26;20038;-72
2024/04/13 05:28:13;;;;;;;19.83;10.40;;;;;;;13.07;100.00;102629.28;5632705;26;20067;-72
2024/04/13 05:30:55;;;;;;;21.10;11.25;;;;;;;13.16;100.00;102617.69;5611592;26;20021;-72
2024/04/13 05:33:27;;;;;;;19.55;10.07;;;;;;;13.21;100.00;102619.00;5629305;26;19998;-72
2024/04/13 05:35:58;;;;;;;21.88;11.80;;;;;;;13.31;100.00;102612.75;5633784;26;20009;-72
2024/04/13 05:38:29;;;;;;;19.50;11.30;;;;;;;13.46;100.00;102617.59;5632085;26;20009;-72
2024/04/13 05:41:00;;;;;;;21.92;12.57;;;;;;;13.61;100.00;102614.47;5628437;26;20429;-72
2024/04/13 05:43:31;;;;;;;31.77;14.05;;;;;;;13.77;100.00;102617.41;5634332;26;20011;-72
2024/04/13 05:46:02;;;;;;;26.33;11.38;;;;;;;13.90;100.00;102626.03;5634855;26;19999;-72
2024/04/13 05:48:33;;;;;;;25.08;11.85;;;;;;;14.03;100.00;102623.03;5635016;26;20034;-72
2024/04/13 05:51:04;;;;;;;21.25;11.07;;;;;;;14.15;100.00;102610.22;5631056;26;20003;-72
2024/04/13 05:53:34;;;;;;;19.50;11.13;;;;;;;14.29;100.00;102620.53;5632863;26;20005;-73
2024/04/13 05:56:06;;;;;;;22.33;10.18;;;;;;;14.43;100.00;102606.56;5634534;26;19995;-73
2024/04/13 05:58:37;;;;;;;20.75;11.35;;;;;;;14.67;100.00;102610.63;5633095;26;20018;-72
2024/04/13 06:01:07;;;;;;;19.50;10.05;;;;;;;14.91;100.00;102602.78;5634846;26;20755;-71
2024/04/13 06:03:38;;;;;;;23.13;10.85;;;;;;;15.09;100.00;102602.81;5634858;26;20079;-73
2024/04/13 06:06:09;;;;;;;21.92;10.60;;;;;;;15.36;100.00;102601.03;5635065;26;20013;-73
2024/04/13 06:08:40;;;;;;;16.67;10.27;;;;;;;15.55;100.00;102617.94;5632660;26;20002;-72
2024/04/13 06:11:10;;;;;;;15.00;8.75;;;;;;;15.66;100.00;102606.06;5625483;26;20025;-72
2024/04/13 06:13:42;;;;;;;19.80;9.55;;;;;;;15.76;100.00;102604.13;5626410;26;20026;-72
2024/04/13 06:16:12;;;;;;;16.45;9.23;;;;;;;15.86;100.00;102600.44;5616606;26;19994;-72
2024/04/13 06:18:43;;;;;;;17.38;8.82;;;;;;;15.98;100.00;102601.91;5614151;26;20433;-72
2024/04/13 06:21:14;;;;;;;14.10;8.38;;;;;;;16.11;100.00;102606.88;5617307;26;19999;-72
2024/04/13 06:23:44;;;;;;;15.68;9.07;;;;;;;16.32;100.00;102604.63;5633164;26;20030;-72
2024/04/13 06:26:15;;;;;;;17.63;8.70;;;;;;;16.58;100.00;102593.75;5628990;26;20006;-72
2024/04/13 06:28:45;;;;;;;15.13;7.72;;;;;;;16.81;100.00;102596.72;5632400;26;20447;-72
2024/04/13 06:31:16;;;;;;;16.38;7.78;;;;;;;16.85;100.00;102602.66;5633188;26;20027;-72
2024/04/13 06:33:46;;;;;;;16.77;7.28;;;;;;;16.82;100.00;102593.88;5633914;26;20010;-72
2024/04/13 06:36:17;;;;;;;16.08;7.10;;;;;;;16.94;100.00;102601.69;5627612;26;20010;-72
2024/04/13 06:38:48;;;;;;;13.20;6.80;;;;;;;17.09;100.00;102595.44;5624605;26;20009;-72
2024/04/13 06:41:18;;;;;;;15.68;7.57;;;;;;;17.14;100.00;102596.81;5630965;26;20007;-72
2024/04/13 06:43:49;;;;;;;20.95;7.70;;;;;;;17.34;100.00;102599.03;5633173;26;20014;-72
2024/04/13 06:46:20;;;;;;;14.15;7.40;;;;;;;17.49;100.00;102601.06;5634251;26;20440;-72
2024/04/13 06:48:50;;;;;;;14.95;6.88;;;;;;;17.61;100.00;102597.84;5631536;26;20007;-72
2024/04/13 06:51:21;;;;;;;14.40;7.00;;;;;;;17.75;100.00;102596.34;5633591;26;19999;-72
2024/04/13 06:53:52;;;;;;;12.40;6.78;;;;;;;17.82;100.00;102594.66;5632466;26;19999;-72
2024/04/13 06:56:22;;;;;;;23.02;7.85;;;;;;;18.01;100.00;102592.56;5612950;26;20003;-71
2024/04/13 06:58:53;;;;;;;12.82;6.32;;;;;;;18.27;100.00;102586.88;5628986;26;19999;-71
2024/04/13 07:01:23;;;;;;;14.10;6.20;;;;;;;18.32;100.00;102588.09;5634528;26;20006;-72
2024/04/13 07:03:56;;;;;;;9.07;5.65;;;;;;;18.48;100.00;102595.31;5632015;26;20003;-72
2024/04/13 07:06:27;;;;;;;13.95;6.40;;;;;;;18.70;100.00;102588.28;5624984;26;20021;-72
2024/04/13 07:08:57;;;;;;;11.48;6.28;;;;;;;18.97;100.00;102591.50;5631199;26;20320;-72
2024/04/13 07:11:28;;;;;;;14.30;5.55;;;;;;;19.19;100.00;102582.53;5625865;26;20087;-73
2024/04/13 07:13:58;;;;;;;11.75;5.40;;;;;;;19.37;100.00;102590.38;5633408;26;19999;-73
2024/04/13 07:16:29;;;;;;;9.65;5.32;;;;;;;19.65;100.00;102588.81;5631822;26;20447;-73
2024/04/13 07:19:00;;;;;;;9.07;5.53;;;;;;;19.99;100.00;102581.19;5620777;26;20003;-74
2024/04/13 07:21:30;;;;;;;16.95;5.63;;;;;;;20.07;100.00;102589.25;5634493;26;20344;-74
2024/04/13 07:24:01;;;;;;;18.42;5.60;;;;;;;20.24;100.00;102582.59;5632919;26;20014;-74
2024/04/13 07:26:32;;;;;;;11.13;4.95;;;;;;;20.27;100.00;102576.75;5634229;26;20010;-74
2024/04/13 07:29:02;;;;;;;8.25;4.53;;;;;;;20.22;100.00;102576.47;5630435;26;20035;-74
2024/04/13 07:31:33;;;;;;;8.10;5.43;;;;;;;20.09;100.00;102581.75;5633146;26;20003;-74
2024/04/13 07:34:03;;;;;;;11.57;4.75;;;;;;;20.07;100.00;102578.34;5631972;26;20071;-74
2024/04/13 07:36:34;;;;;;;10.98;5.03;;;;;;;20.32;100.00;102571.56;5633046;26;20010;-73
2024/04/13 07:39:04;;;;;;;9.88;4.65;;;;;;;20.46;100.00;102571.75;5631718;26;20011;-73
2024/04/13 07:41:35;;;;;;;8.68;4.32;;;;;;;20.74;100.00;102567.34;5633042;26;20039;-74
2024/04/13 07:44:05;;;;;;;12.82;4.63;;;;;;;21.07;100.00;102562.22;5632320;26;20866;-74
2024/04/13 07:46:37;;;;;;;6.82;4.25;;;;;;;21.38;100.00;102563.81;5633003;26;20083;-74
2024/04/13 07:49:07;;;;;;;9.70;4.32;;;;;;;21.51;100.00;102554.88;5629300;26;20002;-74
2024/04/13 07:51:38;;;;;;;11.70;5.20;;;;;;;21.34;100.00;102557.91;5629871;26;20016;-74
2024/04/13 07:54:08;;;;;;;11.63;4.90;;;;;;;21.36;100.00;102557.69;5631017;26;19998;-74
2024/04/13 07:56:39;;;;;;;11.82;4.78;;;;;;;21.46;100.00;102553.59;5632495;26;20011;-74
2024/04/13 07:59:09;;;;;;;9.63;4.63;;;;;;;21.59;100.00;102550.13;5628438;26;20002;-74
2024/04/13 08:01:41;;;;;;;14.23;4.45;;;;;;;21.67;100.00;102551.84;5633091;26;20003;-74
2024/04/13 08:04:11;;;;;;;11.75;4.90;;;;;;;21.60;100.00;102557.28;5626835;26;20046;-74
2024/04/13 08:06:42;;;;;;;8.02;4.28;;;;;;;21.64;100.00;102558.56;5631696;26;20003;-74
2024/04/13 08:09:13;;;;;;;7.60;4.43;;;;;;;21.76;100.00;102556.13;5631341;26;20003;-74
2024/04/13 08:11:43;;;;;;;9.38;4.00;;;;;;;21.97;100.00;102549.75;5624072;26;20010;-74
2024/04/13 08:14:14;;;;;;;10.15;4.40;;;;;;;22.16;100.00;102542.75;5633007;26;19995;-74
2024/04/13 08:16:45;;;;;;;9.85;4.22;;;;;;;22.29;100.00;102548.31;5631986;26;19998;-74
2024/04/13 08:19:16;;;;;;;12.85;4.63;;;;;;;22.36;100.00;102540.97;5631883;26;20007;-74
2024/04/13 08:21:46;;;;;;;12.43;4.85;;;;;;;22.44;100.00;102539.91;5632618;26;20005;-74
2024/04/13 08:24:17;;;;;;;12.30;4.55;;;;;;;22.44;100.00;102543.53;5633462;26;20382;-74
2024/04/13 08:26:48;;;;;;;12.55;4.90;;;;;;;22.55;100.00;102538.53;5633425;26;19999;-74
2024/04/13 08:29:19;;;;;;;14.73;4.95;;;;;;;22.67;100.00;102543.16;5631890;26;20013;-74
2024/04/13 08:31:50;;;;;;;9.40;4.22;;;;;;;22.66;100.00;102552.44;5632865;26;20003;-74
2024/04/13 08:34:20;;;;;;;8.75;4.22;;;;;;;22.96;100.00;102544.75;5631483;26;19999;-74
2024/04/13 08:36:51;;;;;;;11.73;4.60;;;;;;;22.99;100.00;102538.88;5627652;26;19996;-74
2024/04/13 08:39:21;;;;;;;14.93;5.18;;;;;;;23.01;100.00;102538.66;5631728;26;20003;-74
2024/04/13 08:42:05;;;;;;;11.30;5.07;;;;;;;23.41;100.00;102531.31;5633175;26;20010;-74
2024/04/13 08:44:37;;;;;;;10.07;4.03;;;;;;;23.62;100.00;102529.41;5630395;26;20007;-74
2024/04/13 08:47:07;;;;;;;13.77;4.53;;;;;;;23.79;100.00;102533.41;5630649;26;20372;-74
2024/04/13 08:49:39;;;;;;;7.53;3.80;;;;;;;23.87;100.00;102527.72;5631448;26;19999;-74
2024/04/13 08:52:12;;;;;;;9.00;4.00;;;;;;;24.20;100.00;102521.31;5631655;26;20010;-74
2024/04/13 08:54:45;;;;;;;6.97;3.67;;;;;;;24.41;100.00;102514.69;5632634;26;20425;-74
2024/04/13 08:57:24;;;;;;;10.50;3.80;;;;;;;24.59;100.00;102517.53;5632416;26;19994;-74
2024/04/13 09:00:00;;;;;;;13.32;4.00;;;;;;;24.74;100.00;102509.00;5626314;26;20007;-75
2024/04/13 09:02:33;;;;;;;13.65;4.25;;;;;;;24.77;100.00;102506.69;5620460;26;19999;-75
2024/04/13 09:05:07;;;;;;;10.02;4.00;;;;;;;24.49;100.00;102498.81;5630151;26;20003;-74
2024/04/13 09:07:39;;;;;;;8.43;3.92;;;;;;;24.25;100.00;102502.28;5630747;26;19999;-75
2024/04/13 09:10:11;;;;;;;6.15;3.40;;;;;;;24.27;100.00;102497.41;5631430;26;20429;-75
2024/04/13 09:12:42;;;;;;;9.95;3.60;;;;;;;24.17;100.00;102489.66;5631151;26;20023;-75
2024/04/13 09:15:12;;;;;;;7.55;3.22;;;;;;;24.01;100.00;102493.72;5629090;26;20071;-75
2024/04/13 09:17:43;;;;;;;109.35;11.05;;;;;;;24.33;100.00;102492.97;5631212;26;20006;-75
2024/04/13 09:20:14;;;;;;;13.77;3.90;;;;;;;24.25;100.00;102494.06;5630442;26;20838;-75
2024/04/13 09:22:45;;;;;;;7.55;3.50;;;;;;;24.17;100.00;102488.81;5617585;26;20031;-75
2024/04/13 09:25:20;;;;;;;87.65;10.85;;;;;;;24.07;100.00;102493.91;5630194;26;20010;-75
2024/04/13 09:27:59;;;;;;;10.88;3.58;;;;;;;24.25;100.00;102488.59;5609997;26;20004;-75
2024/04/13 09:30:30;;;;;;;8.45;3.42;;;;;;;24.49;100.00;102484.25;5624460;26;19999;-74
2024/04/13 09:33:03;;;;;;;8.63;3.33;;;;;;;24.57;100.00;102484.00;5628590;26;20006;-75
2024/04/13 09:35:33;;;;;;;7.25;3.67;;;;;;;24.63;100.00;102485.88;5631097;26;20071;-75
2024/04/13 09:38:04;;;;;;;6.65;3.20;;;;;;;24.76;100.00;102487.69;5628305;26;20022;-75
2024/04/13 09:40:36;;;;;;;7.70;3.33;;;;;;;24.77;100.00;102490.22;5630384;26;20009;-75
2024/04/13 09:43:07;;;;;;;7.03;3.13;;;;;;;24.76;100.00;102480.31;5628854;26;20003;-75
2024/04/13 09:45:38;;;;;;;85.57;9.68;;;;;;;25.17;100.00;102481.72;5629602;26;20072;-75
2024/04/13 09:48:09;;;;;;;8.50;2.85;;;;;;;25.29;100.00;102470.81;5628967;26;19998;-75
2024/04/13 09:50:39;;;;;;;12.23;3.22;;;;;;;25.09;100.00;102475.66;5629268;26;19995;-75
2024/04/13 09:53:11;;;;;;;5.25;2.72;;;;;;;24.87;100.00;102473.25;5628106;26;20014;-75
2024/04/13 09:55:41;;;;;;;6.97;2.95;;;;;;;25.12;100.00;102464.22;5628435;26;20013;-75
2024/04/13 09:58:13;;;;;;;5.85;2.08;;;;;;;25.49;100.00;102459.63;5630394;26;19995;-75
2024/04/13 10:00:46;;;;;;;6.22;2.60;;;;;;;25.53;100.00;102453.47;5629083;26;20375;-75
2024/04/13 10:03:17;;;;;;;5.15;2.35;;;;;;;25.55;100.00;102454.09;5614557;26;19998;-76
2024/04/13 10:05:49;;;;;;;5.22;2.13;;;;;;;25.38;100.00;102453.00;5621524;26;20592;-75
2024/04/13 10:08:21;;;;;;;4.18;2.28;;;;;;;25.25;100.00;102440.25;5631519;26;19999;-75
2024/04/13 10:10:53;;;;;;;6.05;2.17;;;;;;;25.26;100.00;102433.69;5627274;26;20014;-75
2024/04/13 10:13:29;;;;;;;8.10;2.63;;;;;;;25.28;100.00;102425.19;5629990;26;19998;-75
2024/04/13 10:16:01;;;;;;;12.38;2.30;;;;;;;25.31;100.00;102424.75;5628886;26;20083;-75
2024/04/13 10:18:32;;;;;;;12.38;2.58;;;;;;;25.44;100.00;102427.34;5629004;26;19999;-76
2024/04/13 10:21:05;;;;;;;6.45;2.25;;;;;;;25.37;100.00;102417.50;5625127;26;19999;-75
2024/04/13 10:23:39;;;;;;;4.13;2.05;;;;;;;25.48;100.00;102412.09;5627495;26;19995;-75
2024/04/13 10:26:10;;;;;;;9.63;2.70;;;;;;;25.64;100.00;102413.41;5624126;26;19998;-75
2024/04/13 10:28:41;;;;;;;7.57;2.10;;;;;;;25.43;100.00;102403.69;5629005;26;20013;-76
2024/04/13 10:31:18;;;;;;;9.20;2.75;;;;;;;25.67;100.00;102401.13;5627111;26;20437;-76
2024/04/13 10:33:53;;;;;;;5.80;1.95;;;;;;;25.51;100.00;102397.91;5620096;26;20791;-76
2024/04/13 10:36:28;;;;;;;7.65;2.28;;;;;;;25.47;100.00;102396.69;5627567;26;19999;-75
2024/04/13 10:39:03;;;;;;;8.48;2.50;;;;;;;25.57;100.00;102385.16;5596068;26;20010;-76
2024/04/13 10:41:36;;;;;;;7.03;2.38;;;;;;;25.50;100.00;102388.00;5627346;26;20003;-76
2024/04/13 10:44:08;;;;;;;10.77;2.65;;;;;;;25.64;100.00;102374.91;5626561;26;20010;-76
2024/04/13 10:46:40;;;;;;;7.20;2.70;;;;;;;25.86;100.00;102374.50;5627901;26;20010;-76
2024/04/13 10:49:11;;;;;;;6.05;2.30;;;;;;;26.02;100.00;102373.84;5625715;26;20321;-76
2024/04/13 10:51:43;;;;;;;6.22;2.22;;;;;;;26.10;100.00;102368.00;5628900;26;19999;-76
2024/04/13 10:54:14;;;;;;;7.93;2.78;;;;;;;26.21;100.00;102369.16;5595923;26;20010;-76
2024/04/13 10:56:45;;;;;;;7.25;2.50;;;;;;;25.97;100.00;102354.47;5590163;26;20223;-76
2024/04/13 10:59:17;;;;;;;8.77;2.88;;;;;;;26.17;100.00;102357.75;5626745;26;20006;-76
2024/04/13 11:01:48;;;;;;;8.07;2.33;;;;;;;26.29;100.00;102352.28;5626071;26;20035;-76
2024/04/13 11:04:18;;;;;;;12.32;3.00;;;;;;;26.44;100.00;102354.63;5626189;26;20076;-76
2024/04/13 11:06:49;;;;;;;6.65;2.30;;;;;;;26.53;100.00;102345.78;5620561;26;20082;-76
2024/04/13 11:09:19;;;;;;;9.43;3.05;;;;;;;26.47;100.00;102352.25;5625691;26;20010;-76
2024/04/13 11:11:51;;;;;;;6.38;2.30;;;;;;;26.35;100.00;102352.16;5616837;26;19998;-76
2024/04/13 11:14:22;;;;;;;8.27;2.90;;;;;;;26.23;100.00;102350.47;5613969;26;20003;-76
2024/04/13 11:16:52;;;;;;;5.40;2.10;;;;;;;26.24;100.00;102339.22;5625741;26;20002;-76
2024/04/13 11:19:23;;;;;;;6.40;2.10;;;;;;;26.46;100.00;102344.25;5619677;26;20003;-76
2024/04/13 11:21:57;;;;;;;6.10;2.58;;;;;;;26.53;100.00;102342.22;5591388;26;20369;-76
2024/04/13 11:24:29;;;;;;;6.75;2.22;;;;;;;26.61;100.00;102336.38;5617096;26;20003;-76
2024/04/13 11:26:59;;;;;;;6.88;2.38;;;;;;;26.59;100.00;102328.31;5627102;26;20010;-76